createdAt,value
2022-11-16T00:00:35.259Z,9.57
2022-11-16T00:03:02.835Z,9.51
2022-11-16T00:05:29.283Z,9.47
2022-11-16T00:07:55.806Z,9.45
2022-11-16T00:10:22.247Z,9.44
2022-11-16T00:12:48.645Z,9.45
2022-11-16T00:15:15.201Z,9.50
2022-11-16T00:17:41.583Z,9.53
2022-11-16T00:20:08.685Z,9.49
2022-11-16T00:22:35.079Z,9.45
2022-11-16T00:25:01.477Z,9.44
2022-11-16T00:27:27.863Z,9.44
2022-11-16T00:29:54.265Z,9.42
2022-11-16T00:32:20.666Z,9.42
2022-11-16T00:34:47.071Z,9.39
2022-11-16T00:37:13.508Z,9.35
2022-11-16T00:39:39.913Z,9.30
2022-11-16T00:42:06.302Z,9.24
2022-11-16T00:44:32.718Z,9.23
2022-11-16T00:46:59.204Z,9.20
2022-11-16T00:49:25.609Z,9.22
2022-11-16T00:51:52.013Z,9.18
2022-11-16T00:54:18.458Z,9.14
2022-11-16T00:56:44.849Z,9.19
2022-11-16T00:59:11.257Z,9.11
2022-11-16T01:01:37.772Z,9.07
2022-11-16T01:04:04.384Z,9.09
2022-11-16T01:06:30.798Z,9.07
2022-11-16T01:08:57.217Z,9.05
2022-11-16T01:11:23.648Z,9.06
2022-11-16T01:13:50.110Z,9.01
2022-11-16T01:16:17.127Z,9.00
2022-11-16T01:18:44.264Z,9.00
2022-11-16T01:21:10.665Z,8.98
2022-11-16T01:23:37.072Z,8.97
2022-11-16T01:26:03.581Z,8.98
2022-11-16T01:28:30.129Z,8.96
2022-11-16T01:30:56.729Z,8.94
2022-11-16T01:33:23.276Z,8.92
2022-11-16T01:35:49.715Z,8.92
2022-11-16T01:38:16.128Z,8.90
2022-11-16T01:40:42.554Z,8.92
2022-11-16T01:43:19.637Z,8.85
2022-11-16T01:45:46.149Z,8.82
2022-11-16T01:48:19.155Z,8.73
2022-11-16T01:50:45.727Z,8.77
2022-11-16T01:53:12.106Z,8.74
2022-11-16T01:55:38.549Z,8.80
2022-11-16T01:58:04.929Z,8.75
2022-11-16T02:00:31.312Z,8.74
2022-11-16T02:02:57.702Z,8.70
2022-11-16T02:05:55.478Z,8.66
2022-11-16T02:08:59.305Z,8.65
2022-11-16T02:11:58.123Z,8.60
2022-11-16T02:14:37.648Z,8.55
2022-11-16T02:17:12.824Z,8.53
2022-11-16T02:20:00.310Z,8.55
2022-11-16T02:22:43.748Z,8.49
2022-11-16T02:25:37.178Z,8.52
2022-11-16T02:28:22.035Z,8.49
2022-11-16T02:30:49.349Z,8.45
2022-11-16T02:33:18.295Z,8.41
2022-11-16T02:35:50.241Z,8.38
2022-11-16T02:38:22.744Z,8.40
2022-11-16T02:40:51.565Z,8.36
2022-11-16T02:43:21.844Z,8.33
2022-11-16T02:45:49.805Z,8.31
2022-11-16T02:48:27.758Z,8.32
2022-11-16T02:50:54.170Z,8.31
2022-11-16T02:53:21.163Z,8.30
2022-11-16T02:55:47.569Z,8.34
2022-11-16T02:58:14.605Z,8.30
2022-11-16T03:00:48.251Z,8.34
2022-11-16T03:03:28.036Z,8.28
2022-11-16T03:06:18.516Z,8.29
2022-11-16T03:08:52.052Z,8.25
2022-11-16T03:11:18.481Z,8.24
2022-11-16T03:13:44.902Z,8.22
2022-11-16T03:16:14.670Z,8.21
2022-11-16T03:18:40.936Z,8.26
2022-11-16T03:21:17.580Z,8.22
2022-11-16T03:23:44.964Z,8.23
2022-11-16T03:26:11.356Z,8.18
2022-11-16T03:28:47.759Z,8.15
2022-11-16T03:31:16.896Z,8.07
2022-11-16T03:33:45.703Z,8.04
2022-11-16T03:36:23.394Z,8.10
2022-11-16T03:38:49.872Z,8.06
2022-11-16T03:41:16.265Z,8.06
2022-11-16T03:43:42.682Z,8.09
2022-11-16T03:46:09.080Z,8.11
2022-11-16T03:48:36.360Z,8.19
2022-11-16T03:51:03.524Z,8.13
2022-11-16T03:53:29.924Z,8.09
2022-11-16T03:55:56.356Z,8.00
2022-11-16T03:58:22.820Z,8.00
2022-11-16T04:00:49.272Z,8.05
2022-11-16T04:03:15.679Z,8.07
2022-11-16T04:05:42.260Z,8.03
2022-11-16T04:08:16.007Z,7.99
2022-11-16T04:10:42.577Z,7.95
2022-11-16T04:13:10.664Z,7.97
2022-11-16T04:15:37.084Z,7.95
2022-11-16T04:18:03.604Z,8.01
2022-11-16T04:20:30.026Z,8.02
2022-11-16T04:23:08.396Z,8.03
2022-11-16T04:25:35.610Z,8.00
2022-11-16T04:28:02.669Z,7.99
2022-11-16T04:30:29.056Z,7.98
2022-11-16T04:32:55.461Z,7.93
2022-11-16T04:35:21.868Z,7.89
2022-11-16T04:37:48.291Z,7.89
2022-11-16T04:40:25.256Z,7.94
2022-11-16T04:42:58.997Z,7.95
2022-11-16T04:45:25.883Z,7.96
2022-11-16T04:47:52.373Z,7.88
2022-11-16T04:50:18.908Z,7.97
2022-11-16T04:52:45.307Z,7.95
2022-11-16T04:55:11.996Z,8.00
2022-11-16T04:57:38.821Z,7.98
2022-11-16T05:00:06.375Z,8.01
2022-11-16T05:02:32.862Z,7.94
2022-11-16T05:04:59.305Z,7.96
2022-11-16T05:07:25.773Z,7.95
2022-11-16T05:09:52.276Z,7.88
2022-11-16T05:12:21.707Z,7.96
2022-11-16T05:14:48.116Z,7.89
2022-11-16T05:17:14.631Z,7.89
2022-11-16T05:19:41.256Z,7.94
2022-11-16T05:22:07.645Z,7.93
2022-11-16T05:24:34.051Z,7.94
2022-11-16T05:27:04.494Z,7.92
2022-11-16T05:29:30.901Z,7.89
2022-11-16T05:31:58.068Z,7.87
2022-11-16T05:34:24.483Z,7.86
2022-11-16T05:36:50.923Z,7.86
2022-11-16T05:39:17.326Z,7.87
2022-11-16T05:41:43.745Z,7.81
2022-11-16T05:44:10.191Z,7.79
2022-11-16T05:46:36.695Z,7.73
2022-11-16T05:49:03.267Z,7.73
2022-11-16T05:51:29.685Z,7.73
2022-11-16T05:53:56.080Z,7.73
2022-11-16T05:56:22.546Z,7.73
2022-11-16T05:58:49.005Z,7.71
2022-11-16T06:01:15.446Z,7.72
2022-11-16T06:03:41.889Z,7.66
2022-11-16T06:06:08.352Z,7.67
2022-11-16T06:08:35.046Z,7.68
2022-11-16T06:11:05.222Z,7.75
2022-11-16T06:13:32.103Z,7.72
2022-11-16T06:15:58.901Z,7.74
2022-11-16T06:18:25.527Z,7.68
2022-11-16T06:20:51.955Z,7.67
2022-11-16T06:23:18.428Z,7.68
2022-11-16T06:25:44.839Z,7.70
2022-11-16T06:28:11.259Z,7.69
2022-11-16T06:30:37.845Z,7.69
2022-11-16T06:33:04.843Z,7.68
2022-11-16T06:35:31.251Z,7.62
2022-11-16T06:37:57.797Z,7.64
2022-11-16T06:40:24.849Z,7.66
2022-11-16T06:42:52.766Z,7.65
2022-11-16T06:45:19.178Z,7.65
2022-11-16T06:47:47.686Z,7.61
2022-11-16T06:52:57.820Z,7.58
2022-11-16T06:55:24.225Z,7.59
2022-11-16T06:57:50.627Z,7.52
2022-11-16T07:00:17.581Z,7.45
2022-11-16T07:02:44.076Z,7.41
2022-11-16T07:05:10.533Z,7.41
2022-11-16T07:07:37.067Z,7.43
2022-11-16T07:10:03.791Z,7.43
2022-11-16T07:12:30.200Z,7.42
2022-11-16T07:14:56.645Z,7.49
2022-11-16T07:17:23.061Z,7.43
2022-11-16T07:19:49.462Z,7.39
2022-11-16T07:22:15.881Z,7.38
2022-11-16T07:24:42.371Z,7.37
2022-11-16T07:27:08.798Z,7.37
2022-11-16T07:29:35.225Z,7.35
2022-11-16T07:32:01.645Z,7.35
2022-11-16T07:34:28.107Z,7.40
2022-11-16T07:36:54.583Z,7.41
2022-11-16T07:39:20.970Z,7.35
2022-11-16T07:41:47.582Z,7.39
2022-11-16T07:44:14.047Z,7.40
2022-11-16T07:46:48.636Z,7.38
2022-11-16T07:49:16.175Z,7.39
2022-11-16T07:51:42.758Z,7.39
2022-11-16T07:54:12.731Z,7.35
2022-11-16T07:56:39.218Z,7.36
2022-11-16T07:59:05.647Z,7.32
2022-11-16T08:01:35.810Z,7.37
2022-11-16T08:04:02.331Z,7.38
2022-11-16T08:06:30.270Z,7.42
2022-11-16T08:08:58.936Z,7.37
2022-11-16T08:11:25.705Z,7.36
2022-11-16T08:13:52.306Z,7.32
2022-11-16T08:16:20.386Z,7.32
2022-11-16T08:18:46.820Z,7.32
2022-11-16T08:21:14.369Z,7.33
2022-11-16T08:23:41.005Z,7.44
2022-11-16T08:26:15.789Z,7.44
2022-11-16T08:28:43.495Z,7.45
2022-11-16T08:31:11.655Z,7.43
2022-11-16T08:33:38.170Z,7.44
2022-11-16T08:36:10.880Z,7.36
2022-11-16T08:38:40.151Z,7.36
2022-11-16T08:41:06.915Z,7.43
2022-11-16T08:43:33.346Z,7.39
2022-11-16T08:46:00.303Z,7.37
2022-11-16T08:48:26.856Z,7.42
2022-11-16T08:51:16.435Z,7.37
2022-11-16T08:53:39.758Z,7.34
2022-11-16T08:56:10.276Z,7.34
2022-11-16T08:58:36.840Z,7.33
2022-11-16T09:01:10.615Z,7.35
2022-11-16T09:03:37.962Z,7.36
2022-11-16T09:06:05.149Z,7.42
2022-11-16T09:08:31.849Z,7.39
2022-11-16T09:10:58.452Z,7.47
2022-11-16T09:13:25.084Z,7.44
2022-11-16T09:15:58.475Z,7.38
2022-11-16T09:18:25.175Z,7.36
2022-11-16T09:20:51.710Z,7.38
2022-11-16T09:23:22.347Z,7.39
2022-11-16T09:25:51.436Z,7.43
2022-11-16T09:28:18.260Z,7.45
2022-11-16T09:30:45.361Z,7.38
2022-11-16T09:33:11.814Z,7.39
2022-11-16T09:35:38.878Z,7.35
2022-11-16T09:38:05.510Z,7.42
2022-11-16T09:40:36.532Z,7.46
2022-11-16T09:43:11.945Z,7.49
2022-11-16T09:46:14.587Z,7.41
2022-11-16T09:48:40.973Z,7.35
2022-11-16T09:51:08.706Z,7.36
2022-11-16T09:53:47.105Z,7.33
2022-11-16T09:56:22.374Z,7.35
2022-11-16T09:58:55.134Z,7.31
2022-11-16T10:01:39.692Z,7.30
2022-11-16T10:04:13.300Z,7.38
2022-11-16T10:07:01.096Z,7.32
2022-11-16T10:09:27.542Z,7.32
2022-11-16T10:12:05.512Z,7.36
2022-11-16T10:15:00.138Z,7.30
2022-11-16T10:17:40.929Z,7.30
2022-11-16T10:20:30.851Z,7.23
2022-11-16T10:23:00.681Z,7.14
2022-11-16T10:25:42.188Z,7.08
2022-11-16T10:28:32.866Z,7.09
2022-11-16T10:31:14.964Z,7.15
2022-11-16T10:33:42.207Z,7.17
2022-11-16T10:36:11.745Z,7.19
2022-11-16T10:38:38.162Z,7.26
2022-11-16T10:41:19.055Z,7.27
2022-11-16T10:43:46.814Z,7.23
2022-11-16T10:46:19.313Z,7.23
2022-11-16T10:49:06.644Z,7.30
2022-11-16T10:51:33.108Z,7.25
2022-11-16T10:53:59.547Z,7.20
2022-11-16T10:56:28.426Z,7.17
2022-11-16T10:58:58.669Z,7.21
2022-11-16T11:01:40.808Z,7.19
2022-11-16T11:04:17.041Z,7.22
2022-11-16T11:06:43.720Z,7.18
2022-11-16T11:09:32.640Z,7.21
2022-11-16T11:12:16.000Z,7.19
2022-11-16T11:14:42.482Z,7.19
2022-11-16T11:17:11.123Z,7.20
2022-11-16T11:19:37.549Z,7.18
2022-11-16T11:22:03.989Z,7.17
2022-11-16T11:24:45.857Z,7.15
2022-11-16T11:27:12.422Z,7.19
2022-11-16T11:29:38.805Z,7.24
2022-11-16T11:32:24.683Z,7.26
2022-11-16T11:34:54.327Z,7.31
2022-11-16T11:37:27.334Z,7.28
2022-11-16T11:40:27.563Z,7.34
2022-11-16T11:42:56.740Z,7.29
2022-11-16T11:45:31.211Z,7.31
2022-11-16T11:48:21.950Z,7.27
2022-11-16T11:51:03.676Z,7.31
2022-11-16T11:53:36.380Z,7.26
2022-11-16T11:56:03.259Z,7.27
2022-11-16T11:58:31.246Z,7.29
2022-11-16T12:01:23.748Z,7.31
2022-11-16T12:04:16.493Z,7.36
2022-11-16T12:06:56.819Z,7.35
2022-11-16T12:10:21.734Z,7.44
2022-11-16T12:13:21.441Z,7.45
2022-11-16T12:16:08.178Z,7.45
2022-11-16T12:18:37.611Z,7.47
2022-11-16T12:21:15.932Z,7.43
2022-11-16T12:24:06.589Z,7.48
2022-11-16T12:26:50.577Z,7.46
2022-11-16T12:29:24.107Z,7.50
2022-11-16T12:31:56.117Z,7.51
2022-11-16T12:35:03.445Z,7.53
2022-11-16T12:37:48.198Z,7.56
2022-11-16T12:40:34.386Z,7.54
2022-11-16T12:43:38.154Z,7.45
2022-11-16T12:46:22.717Z,7.59
2022-11-16T12:49:35.523Z,7.59
2022-11-16T12:52:17.322Z,7.58
2022-11-16T12:55:04.222Z,7.60
2022-11-16T12:57:44.549Z,7.60
2022-11-16T13:00:15.549Z,7.61
2022-11-16T13:02:54.120Z,7.63
2022-11-16T13:05:44.209Z,7.65
2022-11-16T13:08:35.361Z,7.70
2022-11-16T13:11:21.941Z,7.68
2022-11-16T13:13:53.447Z,7.68
2022-11-16T13:16:20.391Z,7.66
2022-11-16T13:18:46.835Z,7.63
2022-11-16T13:21:25.577Z,7.65
2022-11-16T13:24:19.411Z,7.66
2022-11-16T13:27:08.418Z,7.66
2022-11-16T13:29:42.857Z,7.67
2022-11-16T13:32:15.238Z,7.69
2022-11-16T13:34:41.735Z,7.68
2022-11-16T13:37:39.343Z,7.67
2022-11-16T13:40:05.661Z,7.57
2022-11-16T13:42:58.667Z,7.58
2022-11-16T13:45:25.143Z,7.56
2022-11-16T13:47:55.543Z,7.54
2022-11-16T13:50:23.390Z,7.57
2022-11-16T13:53:57.522Z,7.62
2022-11-16T13:55:42.698Z,7.69
2022-11-16T13:58:10.902Z,7.67
2022-11-16T14:00:39.325Z,7.64
2022-11-16T14:03:11.960Z,7.64
2022-11-16T14:05:40.150Z,7.64
2022-11-16T14:08:18.713Z,7.57
2022-11-16T14:10:45.014Z,7.59
2022-11-16T14:13:29.854Z,7.63
2022-11-16T14:16:15.501Z,7.60
2022-11-16T14:18:42.426Z,7.58
2022-11-16T14:21:36.418Z,7.55
2022-11-16T14:24:27.462Z,7.48
2022-11-16T14:27:05.988Z,7.48
2022-11-16T14:29:41.375Z,7.41
2022-11-16T14:32:20.256Z,7.38
2022-11-16T14:34:47.990Z,7.35
2022-11-16T14:37:21.448Z,7.33
2022-11-16T14:39:49.550Z,7.35
2022-11-16T14:42:17.975Z,7.33
2022-11-16T14:44:44.384Z,7.32
2022-11-16T14:47:27.776Z,7.37
2022-11-16T14:49:54.872Z,7.36
2022-11-16T14:52:36.865Z,7.37
2022-11-16T14:55:06.595Z,7.39
2022-11-16T14:57:33.000Z,7.36
2022-11-16T15:00:17.668Z,7.37
2022-11-16T15:02:51.697Z,7.33
2022-11-16T15:05:23.433Z,7.28
2022-11-16T15:07:51.876Z,7.28
2022-11-16T15:10:23.655Z,7.31
2022-11-16T15:12:50.548Z,7.32
2022-11-16T15:15:25.879Z,7.29
2022-11-16T15:18:13.214Z,7.27
2022-11-16T15:20:49.631Z,7.26
2022-11-16T15:23:16.092Z,7.32
2022-11-16T15:25:46.345Z,7.27
2022-11-16T15:28:22.937Z,7.23
2022-11-16T15:30:51.048Z,7.26
2022-11-16T15:33:38.219Z,7.17
2022-11-16T15:36:33.104Z,7.13
2022-11-16T15:39:00.388Z,7.14
2022-11-16T15:41:27.110Z,7.13
2022-11-16T15:44:13.396Z,7.14
2022-11-16T15:46:41.399Z,7.15
2022-11-16T15:49:23.108Z,7.11
2022-11-16T15:51:49.556Z,7.09
2022-11-16T15:54:27.027Z,7.10
2022-11-16T15:56:55.652Z,7.15
2022-11-16T15:59:30.355Z,7.11
2022-11-16T16:01:56.788Z,7.16
2022-11-16T16:04:23.251Z,7.16
2022-11-16T16:06:54.206Z,7.10
2022-11-16T16:09:37.724Z,7.07
2022-11-16T16:12:20.152Z,7.06
2022-11-16T16:14:47.115Z,7.07
2022-11-16T16:17:30.251Z,7.11
2022-11-16T16:20:00.545Z,7.15
2022-11-16T16:22:36.700Z,7.11
2022-11-16T16:25:04.643Z,7.17
2022-11-16T16:27:31.690Z,7.18
2022-11-16T16:29:58.909Z,7.19
2022-11-16T16:32:25.901Z,7.15
2022-11-16T16:34:56.641Z,7.12
2022-11-16T16:37:23.307Z,7.07
2022-11-16T16:39:49.737Z,7.08
2022-11-16T16:42:16.488Z,7.17
2022-11-16T16:44:43.372Z,7.18
2022-11-16T16:47:10.011Z,7.12
2022-11-16T16:49:36.475Z,7.15
2022-11-16T16:52:03.391Z,7.18
2022-11-16T16:54:29.824Z,7.10
2022-11-16T16:56:56.416Z,7.10
2022-11-16T16:59:22.899Z,7.10
2022-11-16T17:01:49.961Z,7.08
2022-11-16T17:04:16.395Z,7.13
2022-11-16T17:06:46.473Z,7.07
2022-11-16T17:09:13.251Z,7.03
2022-11-16T17:11:39.691Z,7.08
2022-11-16T17:14:06.091Z,7.04
2022-11-16T17:16:32.587Z,7.03
2022-11-16T17:18:58.990Z,6.89
2022-11-16T17:21:25.423Z,6.87
2022-11-16T17:23:51.857Z,6.86
2022-11-16T17:26:18.274Z,6.85
2022-11-16T17:28:44.737Z,6.86
2022-11-16T17:31:11.932Z,6.83
2022-11-16T17:33:39.931Z,6.74
2022-11-16T17:36:07.238Z,6.79
2022-11-16T17:38:34.007Z,6.72
2022-11-16T17:41:08.422Z,6.78
2022-11-16T17:43:35.360Z,6.81
2022-11-16T17:46:22.657Z,6.74
2022-11-16T17:48:49.104Z,6.70
2022-11-16T17:51:17.067Z,6.72
2022-11-16T17:53:43.493Z,6.69
2022-11-16T17:56:18.050Z,6.70
2022-11-16T17:58:44.470Z,6.71
2022-11-16T18:01:11.487Z,6.66
2022-11-16T18:03:38.308Z,6.71
2022-11-16T18:06:12.466Z,6.67
2022-11-16T18:08:39.328Z,6.64
2022-11-16T18:11:26.279Z,6.64
2022-11-16T18:13:56.760Z,6.66
2022-11-16T18:16:24.547Z,6.63
2022-11-16T18:18:58.881Z,6.56
2022-11-16T18:21:25.334Z,6.56
2022-11-16T18:23:51.765Z,6.60
2022-11-16T18:26:19.149Z,6.54
2022-11-16T18:28:45.564Z,6.57
2022-11-16T18:31:13.502Z,6.62
2022-11-16T18:33:39.984Z,6.56
2022-11-16T18:36:07.082Z,6.51
2022-11-16T18:38:33.582Z,6.48
2022-11-16T18:41:12.057Z,6.53
2022-11-16T18:43:58.842Z,6.45
2022-11-16T18:46:29.788Z,6.45
2022-11-16T18:48:56.284Z,6.39
2022-11-16T18:51:23.207Z,6.41
2022-11-16T18:53:49.666Z,6.32
2022-11-16T18:56:16.171Z,6.39
2022-11-16T18:58:52.052Z,6.38
2022-11-16T19:01:23.579Z,6.35
2022-11-16T19:03:51.172Z,6.31
2022-11-16T19:06:18.028Z,6.35
2022-11-16T19:08:46.855Z,6.36
2022-11-16T19:11:16.811Z,6.32
2022-11-16T19:13:43.498Z,6.36
2022-11-16T19:16:10.732Z,6.36
2022-11-16T19:18:37.328Z,6.32
2022-11-16T19:21:08.304Z,6.26
2022-11-16T19:23:41.597Z,6.28
2022-11-16T19:26:08.308Z,6.27
2022-11-16T19:28:38.664Z,6.26
2022-11-16T19:31:08.707Z,6.27
2022-11-16T19:33:35.397Z,6.29
2022-11-16T19:36:11.735Z,6.24
2022-11-16T19:38:38.192Z,6.31
2022-11-16T19:41:05.280Z,6.30
2022-11-16T19:43:32.097Z,6.34
2022-11-16T19:46:15.444Z,6.31
2022-11-16T19:48:42.260Z,6.29
2022-11-16T19:51:14.336Z,6.31
2022-11-16T19:53:41.141Z,6.27
2022-11-16T19:56:10.035Z,6.25
2022-11-16T19:58:36.560Z,6.22
2022-11-16T20:01:07.716Z,6.26
2022-11-16T20:03:34.816Z,6.24
2022-11-16T20:06:21.558Z,6.21
2022-11-16T20:08:51.877Z,6.27
2022-11-16T20:11:22.883Z,6.26
2022-11-16T20:13:51.243Z,6.24
2022-11-16T20:16:18.707Z,6.20
2022-11-16T20:18:45.371Z,6.22
2022-11-16T20:21:19.690Z,6.19
2022-11-16T20:23:46.160Z,6.15
2022-11-16T20:26:13.287Z,6.13
2022-11-16T20:28:41.078Z,6.10
2022-11-16T20:31:08.415Z,6.03
2022-11-16T20:33:35.253Z,6.06
2022-11-16T20:36:06.715Z,6.05
2022-11-16T20:38:33.940Z,6.05
2022-11-16T20:41:27.620Z,6.15
2022-11-16T20:43:58.016Z,6.10
2022-11-16T20:46:28.590Z,6.09
2022-11-16T20:48:55.157Z,6.06
2022-11-16T20:51:21.567Z,6.00
2022-11-16T20:53:48.327Z,5.98
2022-11-16T20:56:16.596Z,5.99
2022-11-16T20:58:43.141Z,6.00
2022-11-16T21:01:14.395Z,5.97
2022-11-16T21:03:41.025Z,5.95
2022-11-16T21:06:14.767Z,5.94
2022-11-16T21:08:41.352Z,5.92
2022-11-16T21:11:15.599Z,5.86
2022-11-16T21:13:42.048Z,5.78
2022-11-16T21:16:13.058Z,5.75
2022-11-16T21:18:39.873Z,5.74
2022-11-16T21:21:20.546Z,5.71
2022-11-16T21:23:47.034Z,5.68
2022-11-16T21:26:17.427Z,5.72
2022-11-16T21:28:45.538Z,5.72
2022-11-16T21:31:15.430Z,5.64
2022-11-16T21:33:43.609Z,5.62
2022-11-16T21:36:14.952Z,5.59
2022-11-16T21:38:41.480Z,5.60
2022-11-16T21:41:12.394Z,5.64
2022-11-16T21:43:38.874Z,5.62
2022-11-16T21:46:16.789Z,5.54
2022-11-16T21:48:45.747Z,5.57
2022-11-16T21:51:13.883Z,5.56
2022-11-16T21:53:40.332Z,5.57
2022-11-16T21:56:07.967Z,5.52
2022-11-16T21:58:34.382Z,5.54
2022-11-16T22:01:01.397Z,5.53
2022-11-16T22:03:31.275Z,5.53
2022-11-16T22:05:58.506Z,5.44
2022-11-16T22:08:25.002Z,5.45
2022-11-16T22:10:54.547Z,5.40
2022-11-16T22:13:21.030Z,5.46
2022-11-16T22:15:47.634Z,5.50
2022-11-16T22:18:14.175Z,5.49
2022-11-16T22:20:40.819Z,5.55
2022-11-16T22:23:07.348Z,5.52
2022-11-16T22:25:36.549Z,5.50
2022-11-16T22:28:20.140Z,5.50
2022-11-16T22:30:51.360Z,5.52
2022-11-16T22:33:18.595Z,5.52
2022-11-16T22:35:46.811Z,5.49
2022-11-16T22:38:13.324Z,5.52
2022-11-16T22:40:39.752Z,5.50
2022-11-16T22:43:06.187Z,5.43
2022-11-16T22:45:32.614Z,5.43
2022-11-16T22:47:59.043Z,5.45
2022-11-16T22:50:25.519Z,5.48
2022-11-16T22:52:51.934Z,5.49
2022-11-16T22:55:18.354Z,5.41
2022-11-16T22:57:44.816Z,5.43
2022-11-16T23:00:12.165Z,5.41
2022-11-16T23:02:38.593Z,5.46
2022-11-16T23:05:05.341Z,5.45
2022-11-16T23:07:31.870Z,5.46
2022-11-16T23:09:58.395Z,5.47
2022-11-16T23:12:24.848Z,5.44
2022-11-16T23:14:51.247Z,5.47
2022-11-16T23:17:17.664Z,5.46
2022-11-16T23:19:44.050Z,5.47
2022-11-16T23:22:14.966Z,5.45
2022-11-16T23:24:41.494Z,5.42
2022-11-16T23:27:08.688Z,5.42
2022-11-16T23:29:35.189Z,5.44
2022-11-16T23:32:01.614Z,5.53
2022-11-16T23:34:28.046Z,5.55
2022-11-16T23:36:54.452Z,5.53
2022-11-16T23:39:20.882Z,5.53
2022-11-16T23:41:47.282Z,5.54
2022-11-16T23:44:13.690Z,5.58
2022-11-16T23:46:40.088Z,5.61
2022-11-16T23:49:06.518Z,5.55
2022-11-16T23:51:32.946Z,5.48
2022-11-16T23:53:59.334Z,5.51
2022-11-16T23:56:25.765Z,5.50
2022-11-16T23:58:55.171Z,5.45
